createdAt,value
2023-03-13T00:01:21.557Z,3.80
2023-03-13T00:03:48.820Z,3.80
2023-03-13T00:06:16.457Z,4.10
2023-03-13T00:08:44.858Z,3.70
2023-03-13T00:11:13.676Z,3.80
2023-03-13T00:13:40.969Z,5.50
2023-03-13T00:16:15.029Z,6.30
2023-03-13T00:18:51.293Z,3.70
2023-03-13T00:21:21.392Z,3.70
2023-03-13T00:23:49.016Z,3.70
2023-03-13T00:26:19.334Z,3.70
2023-03-13T00:28:47.061Z,6.00
2023-03-13T00:31:16.869Z,3.70
2023-03-13T00:33:47.030Z,3.70
2023-03-13T00:36:19.189Z,6.80
2023-03-13T00:38:47.027Z,3.80
2023-03-13T00:41:18.352Z,6.80
2023-03-13T00:43:46.884Z,3.70
2023-03-13T00:46:18.490Z,3.70
2023-03-13T00:48:45.886Z,3.70
2023-03-13T00:51:13.925Z,3.70
2023-03-13T00:53:41.010Z,3.60
2023-03-13T00:56:11.850Z,3.70
2023-03-13T00:58:42.045Z,5.80
2023-03-13T01:01:15.889Z,5.90
2023-03-13T01:03:47.716Z,3.60
2023-03-13T01:06:18.834Z,3.70
2023-03-13T01:08:45.858Z,3.60
2023-03-13T01:11:20.343Z,3.70
2023-03-13T01:13:48.379Z,3.70
2023-03-13T01:16:19.732Z,3.70
2023-03-13T01:18:50.520Z,3.70
2023-03-13T01:21:21.973Z,3.70
2023-03-13T01:23:50.005Z,3.80
2023-03-13T01:26:17.334Z,3.70
2023-03-13T01:28:44.907Z,3.80
2023-03-13T01:31:22.140Z,3.80
2023-03-13T01:33:53.588Z,3.80
2023-03-13T01:36:20.574Z,3.70
2023-03-13T01:38:53.942Z,6.20
2023-03-13T01:41:22.599Z,3.70
2023-03-13T01:43:49.750Z,3.70
2023-03-13T01:46:25.390Z,3.70
2023-03-13T01:49:06.090Z,3.70
2023-03-13T01:51:42.604Z,3.70
2023-03-13T01:54:44.737Z,3.60
2023-03-13T01:57:26.206Z,3.60
2023-03-13T02:00:08.685Z,3.70
2023-03-13T02:02:38.047Z,3.70
2023-03-13T02:05:06.945Z,3.70
2023-03-13T02:07:48.824Z,3.70
2023-03-13T02:10:18.035Z,4.00
2023-03-13T02:12:45.168Z,3.70
2023-03-13T02:15:21.453Z,3.60
2023-03-13T02:17:49.805Z,3.70
2023-03-13T02:20:22.419Z,3.60
2023-03-13T02:23:00.785Z,3.70
2023-03-13T02:25:44.718Z,6.20
2023-03-13T02:28:18.726Z,3.80
2023-03-13T02:30:47.685Z,3.70
2023-03-13T02:33:15.745Z,5.80
2023-03-13T02:35:44.509Z,3.80
2023-03-13T02:38:17.140Z,3.70
2023-03-13T02:40:47.390Z,3.80
2023-03-13T02:43:34.566Z,6.80
2023-03-13T02:46:18.147Z,3.80
2023-03-13T02:48:54.595Z,3.90
2023-03-13T02:51:40.964Z,5.00
2023-03-13T02:54:16.016Z,3.80
2023-03-13T02:56:45.855Z,3.80
2023-03-13T02:59:12.787Z,3.80
2023-03-13T03:01:39.684Z,3.80
2023-03-13T03:04:06.756Z,3.80
2023-03-13T03:06:33.788Z,3.80
2023-03-13T03:09:00.662Z,3.80
2023-03-13T03:11:27.701Z,3.70
2023-03-13T03:13:55.114Z,3.70
2023-03-13T03:16:22.126Z,3.70
2023-03-13T03:18:49.144Z,3.60
2023-03-13T03:21:16.118Z,3.60
2023-03-13T03:23:43.057Z,3.60
2023-03-13T03:26:10.200Z,3.50
2023-03-13T03:28:37.045Z,3.50
2023-03-13T03:31:06.407Z,3.50
2023-03-13T03:33:33.453Z,3.50
2023-03-13T03:36:13.787Z,3.40
2023-03-13T03:38:41.123Z,3.40
2023-03-13T03:41:09.711Z,4.50
2023-03-13T03:43:36.744Z,3.30
2023-03-13T03:46:04.236Z,3.30
2023-03-13T03:48:31.285Z,3.40
2023-03-13T03:50:58.708Z,3.20
2023-03-13T03:53:25.833Z,3.30
2023-03-13T03:55:52.812Z,3.20
2023-03-13T03:58:19.898Z,3.20
2023-03-13T04:00:48.298Z,3.20
2023-03-13T04:03:16.905Z,3.10
2023-03-13T04:05:44.331Z,6.00
2023-03-13T04:08:11.282Z,3.10
2023-03-13T04:10:38.734Z,3.10
2023-03-13T04:13:05.773Z,3.10
2023-03-13T04:15:33.100Z,3.00
2023-03-13T04:18:00.152Z,4.40
2023-03-13T04:20:28.786Z,3.00
2023-03-13T04:22:55.894Z,3.00
2023-03-13T04:25:22.801Z,3.00
2023-03-13T04:27:49.786Z,3.00
2023-03-13T04:30:18.701Z,2.90
2023-03-13T04:32:46.250Z,3.00
2023-03-13T04:35:13.465Z,3.00
2023-03-13T04:37:40.381Z,3.00
2023-03-13T04:40:08.126Z,5.30
2023-03-13T04:42:35.097Z,3.00
2023-03-13T04:45:02.024Z,3.00
2023-03-13T04:47:28.991Z,3.00
2023-03-13T04:49:55.911Z,3.00
2023-03-13T04:52:23.161Z,3.00
2023-03-13T04:54:51.162Z,3.00
2023-03-13T04:57:18.251Z,3.00
2023-03-13T04:59:45.387Z,3.00
2023-03-13T05:02:13.326Z,3.00
2023-03-13T05:04:40.364Z,3.00
2023-03-13T05:07:07.393Z,2.90
2023-03-13T05:09:34.433Z,2.90
2023-03-13T05:12:01.366Z,5.90
2023-03-13T05:14:28.268Z,2.90
2023-03-13T05:16:55.129Z,5.20
2023-03-13T05:19:22.046Z,2.90
2023-03-13T05:21:48.958Z,2.80
2023-03-13T05:24:15.917Z,2.90
2023-03-13T05:26:42.924Z,4.30
2023-03-13T05:29:09.844Z,4.70
2023-03-13T05:31:36.779Z,2.90
2023-03-13T05:34:03.803Z,2.80
2023-03-13T05:36:30.792Z,2.80
2023-03-13T05:38:57.814Z,2.90
2023-03-13T05:41:24.926Z,2.90
2023-03-13T05:43:51.859Z,3.00
2023-03-13T05:46:19.159Z,4.60
2023-03-13T05:48:46.954Z,2.80
2023-03-13T05:51:13.937Z,5.20
2023-03-13T05:53:41.060Z,2.90
2023-03-13T05:56:08.039Z,2.90
2023-03-13T05:58:34.940Z,3.00
2023-03-13T06:01:08.215Z,3.00
2023-03-13T06:03:35.325Z,3.00
2023-03-13T06:06:02.525Z,2.90
2023-03-13T06:08:29.704Z,3.00
2023-03-13T06:11:00.789Z,3.00
2023-03-13T06:13:28.294Z,3.10
2023-03-13T06:15:57.502Z,3.10
2023-03-13T06:18:25.635Z,3.10
2023-03-13T06:20:58.662Z,3.10
2023-03-13T06:23:26.112Z,3.20
2023-03-13T06:25:54.260Z,3.20
2023-03-13T06:28:21.440Z,3.30
2023-03-13T06:30:48.388Z,3.30
2023-03-13T06:33:15.378Z,3.40
2023-03-13T06:35:55.884Z,3.40
2023-03-13T06:38:28.208Z,3.50
2023-03-13T06:40:55.075Z,3.60
2023-03-13T06:43:22.165Z,6.70
2023-03-13T06:45:49.172Z,3.60
2023-03-13T06:48:16.436Z,3.60
2023-03-13T06:50:43.735Z,4.70
2023-03-13T06:53:19.613Z,3.70
2023-03-13T06:55:47.236Z,6.80
2023-03-13T06:58:29.193Z,3.80
2023-03-13T07:00:59.501Z,3.90
2023-03-13T07:03:26.551Z,3.90
2023-03-13T07:05:58.248Z,3.90
2023-03-13T07:08:25.824Z,3.90
2023-03-13T07:10:54.248Z,3.90
2023-03-13T07:13:22.156Z,6.30
2023-03-13T07:15:49.733Z,3.90
2023-03-13T07:18:16.657Z,4.00
2023-03-13T07:20:44.128Z,4.00
2023-03-13T07:23:11.394Z,5.90
2023-03-13T07:25:38.300Z,4.10
2023-03-13T07:28:05.476Z,4.10
2023-03-13T07:30:32.517Z,4.10
2023-03-13T07:32:59.581Z,4.20
2023-03-13T07:35:26.574Z,4.30
2023-03-13T07:37:53.680Z,4.30
2023-03-13T07:40:20.999Z,4.30
2023-03-13T07:42:47.912Z,4.40
2023-03-13T07:45:14.929Z,4.50
2023-03-13T07:47:41.797Z,4.60
2023-03-13T07:50:09.636Z,4.60
2023-03-13T07:52:36.818Z,4.70
2023-03-13T07:55:04.060Z,4.70
2023-03-13T07:57:31.368Z,4.70
2023-03-13T07:59:58.305Z,4.70
2023-03-13T08:02:25.273Z,4.70
2023-03-13T08:04:53.607Z,4.80
2023-03-13T08:07:20.718Z,4.80
2023-03-13T08:09:48.172Z,4.80
2023-03-13T08:12:15.135Z,4.90
2023-03-13T08:14:42.087Z,4.90
2023-03-13T08:17:09.175Z,5.00
2023-03-13T08:19:36.134Z,5.10
2023-03-13T08:22:03.380Z,5.20
2023-03-13T08:24:30.468Z,8.00
2023-03-13T08:26:57.392Z,5.40
2023-03-13T08:29:24.319Z,5.50
2023-03-13T08:31:52.717Z,5.60
2023-03-13T08:34:20.281Z,7.50
2023-03-13T08:36:47.624Z,5.60
2023-03-13T08:39:17.543Z,5.70
2023-03-13T08:41:44.883Z,5.80
2023-03-13T08:44:17.551Z,8.10
2023-03-13T08:46:44.846Z,6.00
2023-03-13T08:49:12.649Z,6.10
2023-03-13T08:51:40.280Z,6.20
2023-03-13T08:54:07.295Z,6.30
2023-03-13T08:56:35.081Z,6.40
2023-03-13T08:59:04.549Z,6.40
2023-03-13T09:01:34.129Z,6.60
2023-03-13T09:04:04.130Z,6.80
2023-03-13T09:06:33.409Z,6.80
2023-03-13T09:09:00.517Z,6.80
2023-03-13T09:11:28.195Z,6.90
2023-03-13T09:13:59.197Z,6.90
2023-03-13T09:16:29.806Z,7.00
2023-03-13T09:18:58.908Z,7.00
2023-03-13T09:21:35.482Z,8.00
2023-03-13T09:24:02.998Z,7.90
2023-03-13T09:26:30.362Z,7.30
2023-03-13T09:28:57.629Z,9.80
2023-03-13T09:31:31.124Z,7.60
2023-03-13T09:33:58.456Z,9.50
2023-03-13T09:36:26.444Z,9.10
2023-03-13T09:38:56.454Z,8.10
2023-03-13T09:41:39.022Z,8.30
2023-03-13T09:44:27.469Z,8.40
2023-03-13T09:46:54.295Z,11.00
2023-03-13T09:49:35.170Z,8.40
2023-03-13T09:52:23.051Z,10.80
2023-03-13T09:55:04.177Z,9.10
2023-03-13T09:57:40.960Z,9.30
2023-03-13T10:00:27.798Z,9.50
2023-03-13T10:03:25.227Z,9.60
2023-03-13T10:06:20.251Z,9.70
2023-03-13T10:08:47.190Z,9.80
2023-03-13T10:11:30.227Z,10.10
2023-03-13T10:14:16.858Z,10.00
2023-03-13T10:17:31.124Z,10.20
2023-03-13T10:20:17.687Z,10.30
2023-03-13T10:22:52.688Z,10.50
2023-03-13T10:25:34.727Z,12.10
2023-03-13T10:28:02.589Z,10.60
2023-03-13T10:30:35.784Z,10.70
2023-03-13T10:33:08.718Z,10.80
2023-03-13T10:35:46.319Z,10.00
2023-03-13T10:38:22.837Z,12.10
2023-03-13T10:40:59.541Z,11.10
2023-03-13T10:43:29.891Z,12.40
2023-03-13T10:45:56.960Z,11.40
2023-03-13T10:48:29.691Z,11.70
2023-03-13T10:50:57.896Z,13.60
2023-03-13T10:53:33.190Z,14.90
2023-03-13T10:56:14.661Z,11.60
2023-03-13T10:58:49.603Z,11.70
2023-03-13T11:01:23.852Z,12.00
2023-03-13T11:03:53.946Z,11.50
2023-03-13T11:06:35.204Z,11.90
2023-03-13T11:09:12.675Z,11.10
2023-03-13T11:11:56.197Z,10.90
2023-03-13T11:14:25.997Z,10.70
2023-03-13T11:17:24.124Z,12.30
2023-03-13T11:20:28.584Z,10.70
2023-03-13T11:23:28.045Z,10.70
2023-03-13T11:26:32.093Z,10.70
2023-03-13T11:29:18.583Z,10.70
2023-03-13T11:31:58.372Z,10.80
2023-03-13T11:34:46.242Z,10.80
2023-03-13T11:37:16.296Z,10.80
2023-03-13T11:40:21.379Z,11.20
2023-03-13T11:43:24.925Z,11.00
2023-03-13T11:46:18.587Z,11.00
2023-03-13T11:49:09.376Z,11.00
2023-03-13T11:51:58.284Z,11.20
2023-03-13T11:54:47.503Z,11.20
2023-03-13T11:57:40.958Z,11.30
2023-03-13T12:00:23.046Z,11.40
2023-03-13T12:03:06.693Z,11.60
2023-03-13T12:05:48.634Z,11.80
2023-03-13T12:08:28.675Z,12.10
2023-03-13T12:11:17.095Z,12.30
2023-03-13T12:14:00.998Z,12.40
2023-03-13T12:16:46.205Z,12.50
2023-03-13T12:19:19.595Z,12.60
2023-03-13T12:21:55.132Z,13.00
2023-03-13T12:24:41.893Z,14.30
2023-03-13T12:27:27.246Z,12.70
2023-03-13T12:30:03.899Z,12.60
2023-03-13T12:33:16.272Z,12.60
2023-03-13T12:35:49.715Z,12.50
2023-03-13T12:38:22.290Z,12.50
2023-03-13T12:41:20.656Z,14.20
2023-03-13T12:44:07.280Z,12.60
2023-03-13T12:47:18.148Z,14.00
2023-03-13T12:50:19.646Z,12.60
2023-03-13T12:53:21.917Z,12.60
2023-03-13T12:56:07.467Z,12.60
2023-03-13T12:58:56.007Z,12.60
2023-03-13T13:01:44.509Z,12.60
2023-03-13T13:04:25.445Z,12.60
2023-03-13T13:07:02.498Z,13.30
2023-03-13T13:09:32.180Z,12.50
2023-03-13T13:12:20.427Z,12.50
2023-03-13T13:14:50.277Z,12.50
2023-03-13T13:17:39.196Z,13.10
2023-03-13T13:20:40.737Z,13.30
2023-03-13T13:23:46.829Z,12.70
2023-03-13T13:26:33.868Z,12.80
2023-03-13T13:29:24.432Z,13.10
2023-03-13T13:31:51.279Z,13.40
2023-03-13T13:34:36.181Z,12.90
2023-03-13T13:37:23.834Z,12.80
2023-03-13T13:39:55.275Z,12.70
2023-03-13T13:42:31.275Z,13.90
2023-03-13T13:44:59.752Z,13.20
2023-03-13T13:47:32.481Z,12.70
2023-03-13T13:50:01.030Z,12.20
2023-03-13T13:52:38.281Z,12.40
2023-03-13T13:55:42.019Z,12.10
2023-03-13T13:58:21.129Z,11.90
2023-03-13T14:00:57.178Z,11.80
2023-03-13T14:03:27.749Z,11.90
2023-03-13T14:06:21.669Z,13.10
2023-03-13T14:08:55.416Z,9.90
2023-03-13T14:11:31.535Z,12.40
2023-03-13T14:14:16.282Z,11.90
2023-03-13T14:16:50.176Z,12.90
2023-03-13T14:19:31.197Z,13.60
2023-03-13T14:22:07.518Z,11.50
2023-03-13T14:24:37.812Z,11.80
2023-03-13T14:27:23.271Z,11.80
2023-03-13T14:30:11.307Z,12.00
2023-03-13T14:32:39.020Z,11.50
2023-03-13T14:35:08.108Z,11.50
2023-03-13T14:37:53.267Z,11.50
2023-03-13T14:40:28.214Z,11.40
2023-03-13T14:43:01.254Z,11.40
2023-03-13T14:45:39.399Z,11.40
2023-03-13T14:48:24.704Z,11.90
2023-03-13T14:51:19.007Z,11.30
2023-03-13T14:54:01.974Z,12.80
2023-03-13T14:56:42.214Z,11.30
2023-03-13T14:59:19.785Z,11.20
2023-03-13T15:02:13.382Z,11.20
2023-03-13T15:05:01.138Z,12.30
2023-03-13T15:07:46.127Z,11.10
2023-03-13T15:10:32.768Z,11.20
2023-03-13T15:12:59.883Z,11.40
2023-03-13T15:15:26.776Z,12.40
2023-03-13T15:17:53.896Z,11.60
2023-03-13T15:20:23.009Z,11.40
2023-03-13T15:22:50.034Z,11.00
2023-03-13T15:25:21.968Z,11.80
2023-03-13T15:27:50.205Z,11.10
2023-03-13T15:30:25.389Z,11.60
2023-03-13T15:32:52.509Z,11.00
2023-03-13T15:35:28.414Z,11.70
2023-03-13T15:37:57.076Z,11.10
2023-03-13T15:40:24.614Z,11.00
2023-03-13T15:42:53.184Z,11.00
2023-03-13T15:45:21.279Z,11.70
2023-03-13T15:47:48.911Z,12.50
2023-03-13T15:50:22.314Z,11.70
2023-03-13T15:52:49.344Z,10.90
2023-03-13T15:55:16.410Z,10.80
2023-03-13T15:57:49.588Z,10.70
2023-03-13T16:00:22.702Z,12.20
2023-03-13T16:02:50.096Z,10.60
2023-03-13T16:05:17.534Z,10.60
2023-03-13T16:07:44.622Z,12.30
2023-03-13T16:10:28.305Z,11.70
2023-03-13T16:12:55.531Z,10.40
2023-03-13T16:15:22.838Z,11.90
2023-03-13T16:17:50.396Z,11.20
2023-03-13T16:20:23.625Z,10.20
2023-03-13T16:22:53.326Z,10.20
2023-03-13T16:25:21.357Z,10.40
2023-03-13T16:27:48.720Z,11.80
2023-03-13T16:30:23.351Z,10.10
2023-03-13T16:32:50.680Z,10.00
2023-03-13T16:35:17.788Z,11.90
2023-03-13T16:37:45.002Z,9.90
2023-03-13T16:40:23.322Z,12.50
2023-03-13T16:42:50.275Z,9.80
2023-03-13T16:45:17.565Z,11.90
2023-03-13T16:47:46.190Z,9.80
2023-03-13T16:50:33.868Z,11.50
2023-03-13T16:53:02.102Z,9.70
2023-03-13T16:55:30.385Z,9.70
2023-03-13T16:57:59.102Z,11.30
2023-03-13T17:00:30.039Z,9.60
2023-03-13T17:02:58.157Z,11.30
2023-03-13T17:05:27.003Z,12.10
2023-03-13T17:07:54.290Z,9.50
2023-03-13T17:10:31.061Z,9.50
2023-03-13T17:12:58.903Z,9.80
2023-03-13T17:15:27.284Z,9.40
2023-03-13T17:17:54.892Z,9.40
2023-03-13T17:20:24.488Z,11.50
2023-03-13T17:22:51.788Z,12.30
2023-03-13T17:25:19.230Z,10.10
2023-03-13T17:27:49.354Z,10.60
2023-03-13T17:30:20.773Z,10.20
2023-03-13T17:32:49.719Z,9.30
2023-03-13T17:35:17.513Z,11.80
2023-03-13T17:37:45.531Z,9.20
2023-03-13T17:40:23.168Z,9.20
2023-03-13T17:42:50.757Z,10.20
2023-03-13T17:45:18.788Z,11.70
2023-03-13T17:47:46.802Z,9.20
2023-03-13T17:50:22.962Z,10.20
2023-03-13T17:52:50.164Z,9.10
2023-03-13T17:55:17.547Z,11.10
2023-03-13T17:57:45.029Z,9.00
2023-03-13T18:00:29.056Z,10.70
2023-03-13T18:02:56.589Z,9.00
2023-03-13T18:05:23.565Z,9.00
2023-03-13T18:07:51.794Z,9.70
2023-03-13T18:10:27.236Z,11.70
2023-03-13T18:12:54.868Z,8.90
2023-03-13T18:15:26.522Z,10.90
2023-03-13T18:17:54.039Z,10.80
2023-03-13T18:20:28.301Z,11.30
2023-03-13T18:22:59.350Z,8.80
2023-03-13T18:25:28.458Z,8.80
2023-03-13T18:27:55.951Z,10.80
2023-03-13T18:30:24.897Z,9.40
2023-03-13T18:32:52.051Z,8.70
2023-03-13T18:35:19.302Z,11.40
2023-03-13T18:37:48.037Z,11.10
2023-03-13T18:40:22.623Z,10.60
2023-03-13T18:42:50.169Z,10.70
2023-03-13T18:45:23.379Z,8.60
2023-03-13T18:47:50.592Z,8.50
2023-03-13T18:50:31.918Z,10.80
2023-03-13T18:53:00.344Z,8.50
2023-03-13T18:55:30.436Z,10.20
2023-03-13T18:57:57.623Z,9.40
2023-03-13T19:00:28.671Z,9.10
2023-03-13T19:02:55.687Z,8.50
2023-03-13T19:05:23.518Z,10.50
2023-03-13T19:07:50.518Z,9.50
2023-03-13T19:10:20.722Z,9.80
2023-03-13T19:12:47.809Z,11.00
2023-03-13T19:15:16.058Z,10.40
2023-03-13T19:17:43.745Z,8.30
2023-03-13T19:20:20.084Z,9.40
2023-03-13T19:22:47.475Z,8.90
2023-03-13T19:25:17.153Z,8.30
2023-03-13T19:27:45.490Z,9.50
2023-03-13T19:30:30.754Z,10.80
2023-03-13T19:32:57.803Z,9.70
2023-03-13T19:35:24.805Z,9.30
2023-03-13T19:37:51.855Z,8.00
2023-03-13T19:40:26.061Z,9.70
2023-03-13T19:42:53.096Z,8.00
2023-03-13T19:45:22.080Z,7.90
2023-03-13T19:47:49.191Z,7.80
2023-03-13T19:50:29.878Z,7.80
2023-03-13T19:52:56.982Z,7.70
2023-03-13T19:55:24.022Z,9.50
2023-03-13T19:57:51.083Z,7.60
2023-03-13T20:00:24.912Z,9.70
2023-03-13T20:02:54.800Z,10.10
2023-03-13T20:05:23.012Z,10.20
2023-03-13T20:07:49.945Z,7.50
2023-03-13T20:10:17.051Z,9.20
2023-03-13T20:12:43.924Z,9.60
2023-03-13T20:15:11.586Z,7.40
2023-03-13T20:17:38.714Z,7.30
2023-03-13T20:20:08.294Z,7.40
2023-03-13T20:22:35.371Z,7.20
2023-03-13T20:25:02.352Z,9.70
2023-03-13T20:27:29.405Z,7.20
2023-03-13T20:29:56.325Z,7.20
2023-03-13T20:32:23.335Z,7.10
2023-03-13T20:34:50.349Z,7.10
2023-03-13T20:37:17.436Z,7.00
2023-03-13T20:39:44.436Z,6.90
2023-03-13T20:42:11.582Z,8.20
2023-03-13T20:44:38.611Z,8.30
2023-03-13T20:47:05.697Z,6.80
2023-03-13T20:49:34.511Z,8.70
2023-03-13T20:52:01.477Z,9.10
2023-03-13T20:54:28.362Z,6.70
2023-03-13T20:56:55.434Z,6.90
2023-03-13T20:59:22.404Z,9.20
2023-03-13T21:01:49.406Z,6.60
2023-03-13T21:04:16.442Z,8.50
2023-03-13T21:06:43.346Z,6.50
2023-03-13T21:09:10.310Z,6.50
2023-03-13T21:11:37.456Z,9.10
2023-03-13T21:14:04.503Z,8.40
2023-03-13T21:16:31.494Z,6.40
2023-03-13T21:18:59.026Z,6.40
2023-03-13T21:21:26.230Z,6.20
2023-03-13T21:23:53.266Z,8.90
2023-03-13T21:26:20.351Z,9.10
2023-03-13T21:28:48.038Z,8.60
2023-03-13T21:31:18.826Z,7.30
2023-03-13T21:33:46.982Z,6.20
2023-03-13T21:36:16.386Z,6.10
2023-03-13T21:38:44.652Z,8.40
2023-03-13T21:41:15.198Z,6.10
2023-03-13T21:43:42.990Z,6.00
2023-03-13T21:46:12.540Z,6.00
2023-03-13T21:48:40.656Z,5.90
2023-03-13T21:51:08.227Z,7.70
2023-03-13T21:53:36.263Z,5.90
2023-03-13T21:56:04.557Z,8.10
2023-03-13T21:58:31.497Z,5.90
2023-03-13T22:00:58.843Z,5.90
2023-03-13T22:03:26.716Z,6.80
2023-03-13T22:05:54.262Z,8.20
2023-03-13T22:08:21.267Z,5.70
2023-03-13T22:10:57.214Z,5.70
2023-03-13T22:13:24.174Z,5.70
2023-03-13T22:15:52.712Z,5.70
2023-03-13T22:18:19.851Z,5.70
2023-03-13T22:20:46.732Z,5.60
2023-03-13T22:23:14.880Z,5.50
2023-03-13T22:25:48.000Z,5.70
2023-03-13T22:28:15.364Z,4.70
2023-03-13T22:30:45.122Z,7.80
2023-03-13T22:33:12.153Z,7.90
2023-03-13T22:35:39.471Z,5.30
2023-03-13T22:38:06.766Z,5.30
2023-03-13T22:40:34.107Z,5.20
2023-03-13T22:43:01.108Z,5.30
2023-03-13T22:45:28.152Z,5.20
2023-03-13T22:47:55.117Z,5.20
2023-03-13T22:50:25.775Z,5.20
2023-03-13T22:52:53.725Z,5.10
2023-03-13T22:55:20.763Z,7.30
2023-03-13T22:57:47.808Z,7.50
2023-03-13T23:00:15.495Z,5.00
2023-03-13T23:02:42.541Z,4.90
2023-03-13T23:05:09.943Z,4.90
2023-03-13T23:07:40.458Z,4.90
2023-03-13T23:10:09.922Z,4.90
2023-03-13T23:12:37.298Z,4.90
2023-03-13T23:15:06.113Z,6.40
2023-03-13T23:17:34.637Z,4.80
2023-03-13T23:20:01.865Z,4.80
2023-03-13T23:22:32.870Z,4.80
2023-03-13T23:25:00.093Z,4.80
2023-03-13T23:27:27.297Z,4.80
2023-03-13T23:29:55.228Z,4.70
2023-03-13T23:32:23.050Z,4.70
2023-03-13T23:34:50.013Z,4.60
2023-03-13T23:37:17.037Z,4.60
2023-03-13T23:39:44.002Z,7.20
2023-03-13T23:42:10.992Z,4.60
2023-03-13T23:44:38.018Z,4.50
2023-03-13T23:47:05.013Z,4.50
2023-03-13T23:49:32.101Z,4.50
2023-03-13T23:51:59.009Z,4.40
2023-03-13T23:54:25.914Z,5.70
2023-03-13T23:56:52.797Z,5.20
2023-03-13T23:59:19.654Z,4.40
